sensor_id;sensor_type;location;lat;lon;timestamp;P1;durP1;ratioP1;P2;durP2;ratioP2
69854;SDS011;57146;48.140;16.304;2022-08-21T00:00:16;3.80;;;1.10;;
69854;SDS011;57146;48.140;16.304;2022-08-21T00:05:43;5.05;;;1.65;;
69854;SDS011;57146;48.140;16.304;2022-08-21T00:08:13;4.00;;;1.20;;
69854;SDS011;57146;48.140;16.304;2022-08-21T00:10:40;3.72;;;1.20;;
69854;SDS011;57146;48.140;16.304;2022-08-21T00:13:09;4.17;;;1.20;;
69854;SDS011;57146;48.140;16.304;2022-08-21T00:15:37;3.58;;;1.10;;
69854;SDS011;57146;48.140;16.304;2022-08-21T00:18:10;3.45;;;1.00;;
69854;SDS011;57146;48.140;16.304;2022-08-21T00:20:38;4.20;;;1.65;;
69854;SDS011;57146;48.140;16.304;2022-08-21T00:23:07;3.72;;;0.98;;
69854;SDS011;57146;48.140;16.304;2022-08-21T00:25:35;3.90;;;1.50;;
69854;SDS011;57146;48.140;16.304;2022-08-21T00:28:03;3.38;;;1.20;;
69854;SDS011;57146;48.140;16.304;2022-08-21T00:30:30;4.38;;;1.20;;
69854;SDS011;57146;48.140;16.304;2022-08-21T00:32:57;4.53;;;1.30;;
69854;SDS011;57146;48.140;16.304;2022-08-21T00:35:27;3.83;;;1.38;;
69854;SDS011;57146;48.140;16.304;2022-08-21T00:37:57;2.87;;;1.00;;
69854;SDS011;57146;48.140;16.304;2022-08-21T00:40:26;4.18;;;1.90;;
69854;SDS011;57146;48.140;16.304;2022-08-21T00:42:56;3.53;;;1.05;;
69854;SDS011;57146;48.140;16.304;2022-08-21T00:45:23;3.90;;;1.58;;
69854;SDS011;57146;48.140;16.304;2022-08-21T00:47:51;3.60;;;1.45;;
69854;SDS011;57146;48.140;16.304;2022-08-21T00:50:19;4.03;;;2.00;;
69854;SDS011;57146;48.140;16.304;2022-08-21T00:52:47;4.20;;;1.35;;
69854;SDS011;57146;48.140;16.304;2022-08-21T00:55:16;4.05;;;1.92;;
69854;SDS011;57146;48.140;16.304;2022-08-21T00:57:45;3.53;;;1.42;;
69854;SDS011;57146;48.140;16.304;2022-08-21T01:00:18;4.40;;;1.90;;
69854;SDS011;57146;48.140;16.304;2022-08-21T01:02:48;4.43;;;1.73;;
69854;SDS011;57146;48.140;16.304;2022-08-21T01:05:15;4.72;;;1.80;;
69854;SDS011;57146;48.140;16.304;2022-08-21T01:07:42;3.80;;;1.80;;
69854;SDS011;57146;48.140;16.304;2022-08-21T01:10:09;5.28;;;2.15;;
69854;SDS011;57146;48.140;16.304;2022-08-21T01:12:51;4.63;;;2.10;;
69854;SDS011;57146;48.140;16.304;2022-08-21T01:15:23;4.63;;;2.00;;
69854;SDS011;57146;48.140;16.304;2022-08-21T01:17:54;4.50;;;2.17;;
69854;SDS011;57146;48.140;16.304;2022-08-21T01:20:21;4.32;;;2.13;;
69854;SDS011;57146;48.140;16.304;2022-08-21T01:22:58;4.70;;;2.30;;
69854;SDS011;57146;48.140;16.304;2022-08-21T01:25:27;5.43;;;2.40;;
69854;SDS011;57146;48.140;16.304;2022-08-21T01:27:54;4.90;;;1.97;;
69854;SDS011;57146;48.140;16.304;2022-08-21T01:30:23;5.63;;;2.08;;
69854;SDS011;57146;48.140;16.304;2022-08-21T01:32:53;4.60;;;1.55;;
69854;SDS011;57146;48.140;16.304;2022-08-21T01:35:22;4.03;;;1.80;;
69854;SDS011;57146;48.140;16.304;2022-08-21T01:37:49;3.88;;;1.85;;
69854;SDS011;57146;48.140;16.304;2022-08-21T01:40:16;4.63;;;2.00;;
69854;SDS011;57146;48.140;16.304;2022-08-21T01:42:44;4.47;;;2.25;;
69854;SDS011;57146;48.140;16.304;2022-08-21T01:45:13;5.20;;;2.30;;
69854;SDS011;57146;48.140;16.304;2022-08-21T01:47:42;4.70;;;2.15;;
69854;SDS011;57146;48.140;16.304;2022-08-21T01:50:11;5.90;;;2.40;;
69854;SDS011;57146;48.140;16.304;2022-08-21T01:52:39;4.77;;;2.20;;
69854;SDS011;57146;48.140;16.304;2022-08-21T01:55:08;4.95;;;2.25;;
69854;SDS011;57146;48.140;16.304;2022-08-21T01:57:37;5.35;;;2.42;;
69854;SDS011;57146;48.140;16.304;2022-08-21T02:00:06;6.30;;;2.85;;
69854;SDS011;57146;48.140;16.304;2022-08-21T02:02:39;5.30;;;2.70;;
69854;SDS011;57146;48.140;16.304;2022-08-21T02:05:07;4.97;;;2.60;;
69854;SDS011;57146;48.140;16.304;2022-08-21T02:07:37;5.07;;;2.58;;
69854;SDS011;57146;48.140;16.304;2022-08-21T02:10:09;6.43;;;2.40;;
69854;SDS011;57146;48.140;16.304;2022-08-21T02:12:38;5.00;;;2.03;;
69854;SDS011;57146;48.140;16.304;2022-08-21T02:15:06;6.35;;;2.50;;
69854;SDS011;57146;48.140;16.304;2022-08-21T02:17:41;5.13;;;2.40;;
69854;SDS011;57146;48.140;16.304;2022-08-21T02:20:20;4.65;;;1.90;;
69854;SDS011;57146;48.140;16.304;2022-08-21T02:22:52;4.43;;;1.98;;
69854;SDS011;57146;48.140;16.304;2022-08-21T02:25:20;4.30;;;2.10;;
69854;SDS011;57146;48.140;16.304;2022-08-21T02:27:49;5.35;;;2.03;;
69854;SDS011;57146;48.140;16.304;2022-08-21T02:30:23;5.23;;;2.60;;
69854;SDS011;57146;48.140;16.304;2022-08-21T02:32:52;5.57;;;2.90;;
69854;SDS011;57146;48.140;16.304;2022-08-21T02:35:20;4.60;;;2.65;;
69854;SDS011;57146;48.140;16.304;2022-08-21T02:37:49;6.00;;;2.70;;
69854;SDS011;57146;48.140;16.304;2022-08-21T02:40:20;5.05;;;2.50;;
69854;SDS011;57146;48.140;16.304;2022-08-21T02:42:51;6.00;;;2.80;;
69854;SDS011;57146;48.140;16.304;2022-08-21T02:45:19;5.78;;;3.10;;
69854;SDS011;57146;48.140;16.304;2022-08-21T02:47:47;5.60;;;3.03;;
69854;SDS011;57146;48.140;16.304;2022-08-21T02:50:20;6.10;;;2.80;;
69854;SDS011;57146;48.140;16.304;2022-08-21T02:52:52;4.45;;;2.13;;
69854;SDS011;57146;48.140;16.304;2022-08-21T02:55:22;4.83;;;2.57;;
69854;SDS011;57146;48.140;16.304;2022-08-21T02:57:50;5.70;;;2.63;;
69854;SDS011;57146;48.140;16.304;2022-08-21T03:00:17;6.43;;;2.70;;
69854;SDS011;57146;48.140;16.304;2022-08-21T03:02:45;6.07;;;2.90;;
69854;SDS011;57146;48.140;16.304;2022-08-21T03:05:12;4.82;;;2.28;;
69854;SDS011;57146;48.140;16.304;2022-08-21T03:07:40;5.10;;;2.40;;
69854;SDS011;57146;48.140;16.304;2022-08-21T03:10:08;5.63;;;2.90;;
69854;SDS011;57146;48.140;16.304;2022-08-21T03:12:39;4.45;;;1.77;;
69854;SDS011;57146;48.140;16.304;2022-08-21T03:15:07;4.03;;;1.80;;
69854;SDS011;57146;48.140;16.304;2022-08-21T03:17:36;3.83;;;1.77;;
69854;SDS011;57146;48.140;16.304;2022-08-21T03:20:04;3.47;;;1.40;;
69854;SDS011;57146;48.140;16.304;2022-08-21T03:22:34;3.50;;;1.48;;
69854;SDS011;57146;48.140;16.304;2022-08-21T03:25:02;3.47;;;1.40;;
69854;SDS011;57146;48.140;16.304;2022-08-21T03:27:32;4.22;;;1.73;;
69854;SDS011;57146;48.140;16.304;2022-08-21T03:29:59;3.20;;;1.27;;
69854;SDS011;57146;48.140;16.304;2022-08-21T03:32:27;3.83;;;1.57;;
69854;SDS011;57146;48.140;16.304;2022-08-21T03:34:54;3.42;;;1.40;;
69854;SDS011;57146;48.140;16.304;2022-08-21T03:37:21;3.60;;;1.52;;
69854;SDS011;57146;48.140;16.304;2022-08-21T03:39:48;4.03;;;1.55;;
69854;SDS011;57146;48.140;16.304;2022-08-21T03:42:15;3.47;;;1.40;;
69854;SDS011;57146;48.140;16.304;2022-08-21T03:44:42;3.23;;;1.20;;
69854;SDS011;57146;48.140;16.304;2022-08-21T03:47:09;2.78;;;0.95;;
69854;SDS011;57146;48.140;16.304;2022-08-21T03:49:36;3.92;;;1.02;;
69854;SDS011;57146;48.140;16.304;2022-08-21T03:52:03;2.60;;;0.73;;
69854;SDS011;57146;48.140;16.304;2022-08-21T03:54:31;3.25;;;0.70;;
69854;SDS011;57146;48.140;16.304;2022-08-21T03:56:58;3.43;;;0.90;;
69854;SDS011;57146;48.140;16.304;2022-08-21T03:59:25;2.50;;;0.52;;
69854;SDS011;57146;48.140;16.304;2022-08-21T04:01:56;2.33;;;0.43;;
69854;SDS011;57146;48.140;16.304;2022-08-21T04:04:26;2.30;;;0.50;;
69854;SDS011;57146;48.140;16.304;2022-08-21T04:06:54;1.88;;;0.30;;
69854;SDS011;57146;48.140;16.304;2022-08-21T04:09:23;2.03;;;0.30;;
69854;SDS011;57146;48.140;16.304;2022-08-21T04:11:50;1.70;;;0.30;;
69854;SDS011;57146;48.140;16.304;2022-08-21T04:14:17;2.05;;;0.30;;
69854;SDS011;57146;48.140;16.304;2022-08-21T04:16:44;1.80;;;0.20;;
69854;SDS011;57146;48.140;16.304;2022-08-21T04:19:11;2.40;;;0.20;;
69854;SDS011;57146;48.140;16.304;2022-08-21T04:21:39;2.07;;;0.30;;
69854;SDS011;57146;48.140;16.304;2022-08-21T04:24:09;2.58;;;0.22;;
69854;SDS011;57146;48.140;16.304;2022-08-21T04:26:37;1.55;;;0.10;;
69854;SDS011;57146;48.140;16.304;2022-08-21T04:29:05;1.70;;;0.30;;
69854;SDS011;57146;48.140;16.304;2022-08-21T04:31:34;1.73;;;0.22;;
69854;SDS011;57146;48.140;16.304;2022-08-21T04:34:05;1.97;;;0.30;;
69854;SDS011;57146;48.140;16.304;2022-08-21T04:36:32;1.80;;;0.22;;
69854;SDS011;57146;48.140;16.304;2022-08-21T04:38:59;2.25;;;0.30;;
69854;SDS011;57146;48.140;16.304;2022-08-21T04:41:28;2.15;;;0.35;;
69854;SDS011;57146;48.140;16.304;2022-08-21T04:43:55;2.33;;;0.50;;
69854;SDS011;57146;48.140;16.304;2022-08-21T04:46:22;2.40;;;0.40;;
69854;SDS011;57146;48.140;16.304;2022-08-21T04:48:49;2.00;;;0.40;;
69854;SDS011;57146;48.140;16.304;2022-08-21T04:51:29;2.00;;;0.30;;
69854;SDS011;57146;48.140;16.304;2022-08-21T04:54:12;2.40;;;0.28;;
69854;SDS011;57146;48.140;16.304;2022-08-21T04:56:51;2.22;;;0.50;;
69854;SDS011;57146;48.140;16.304;2022-08-21T04:59:23;1.70;;;0.20;;
69854;SDS011;57146;48.140;16.304;2022-08-21T05:01:53;1.88;;;0.20;;
69854;SDS011;57146;48.140;16.304;2022-08-21T05:04:21;1.83;;;0.17;;
69854;SDS011;57146;48.140;16.304;2022-08-21T05:06:53;1.92;;;0.40;;
69854;SDS011;57146;48.140;16.304;2022-08-21T05:09:23;2.17;;;0.30;;
69854;SDS011;57146;48.140;16.304;2022-08-21T05:11:51;2.73;;;0.60;;
69854;SDS011;57146;48.140;16.304;2022-08-21T05:14:18;2.00;;;0.50;;
69854;SDS011;57146;48.140;16.304;2022-08-21T05:16:46;2.40;;;0.60;;
69854;SDS011;57146;48.140;16.304;2022-08-21T05:19:13;2.65;;;0.57;;
69854;SDS011;57146;48.140;16.304;2022-08-21T05:21:41;2.60;;;0.82;;
69854;SDS011;57146;48.140;16.304;2022-08-21T05:24:10;2.70;;;0.80;;
69854;SDS011;57146;48.140;16.304;2022-08-21T05:26:38;3.70;;;0.80;;
69854;SDS011;57146;48.140;16.304;2022-08-21T05:29:16;2.67;;;0.80;;
69854;SDS011;57146;48.140;16.304;2022-08-21T05:31:45;3.97;;;1.10;;
69854;SDS011;57146;48.140;16.304;2022-08-21T05:34:18;2.70;;;0.90;;
69854;SDS011;57146;48.140;16.304;2022-08-21T05:36:46;3.70;;;0.97;;
69854;SDS011;57146;48.140;16.304;2022-08-21T05:39:13;3.40;;;0.93;;
69854;SDS011;57146;48.140;16.304;2022-08-21T05:41:41;2.75;;;0.73;;
69854;SDS011;57146;48.140;16.304;2022-08-21T05:44:08;3.05;;;0.70;;
69854;SDS011;57146;48.140;16.304;2022-08-21T05:46:36;2.55;;;0.80;;
69854;SDS011;57146;48.140;16.304;2022-08-21T05:49:03;2.93;;;0.80;;
69854;SDS011;57146;48.140;16.304;2022-08-21T05:51:30;3.38;;;0.90;;
69854;SDS011;57146;48.140;16.304;2022-08-21T05:53:57;2.90;;;0.90;;
69854;SDS011;57146;48.140;16.304;2022-08-21T05:56:24;2.63;;;0.93;;
69854;SDS011;57146;48.140;16.304;2022-08-21T05:58:51;3.28;;;0.93;;
69854;SDS011;57146;48.140;16.304;2022-08-21T06:01:18;2.90;;;0.90;;
69854;SDS011;57146;48.140;16.304;2022-08-21T06:03:45;2.83;;;0.77;;
69854;SDS011;57146;48.140;16.304;2022-08-21T06:06:11;2.55;;;0.82;;
69854;SDS011;57146;48.140;16.304;2022-08-21T06:08:38;2.40;;;0.70;;
69854;SDS011;57146;48.140;16.304;2022-08-21T06:11:05;2.75;;;0.90;;
69854;SDS011;57146;48.140;16.304;2022-08-21T06:13:35;2.20;;;0.53;;
69854;SDS011;57146;48.140;16.304;2022-08-21T06:16:04;3.33;;;0.80;;
69854;SDS011;57146;48.140;16.304;2022-08-21T06:18:36;2.85;;;0.90;;
69854;SDS011;57146;48.140;16.304;2022-08-21T06:21:04;2.90;;;0.73;;
69854;SDS011;57146;48.140;16.304;2022-08-21T06:23:32;2.70;;;0.70;;
69854;SDS011;57146;48.140;16.304;2022-08-21T06:26:00;2.40;;;0.70;;
69854;SDS011;57146;48.140;16.304;2022-08-21T06:28:28;3.40;;;0.98;;
69854;SDS011;57146;48.140;16.304;2022-08-21T06:30:55;2.30;;;0.70;;
69854;SDS011;57146;48.140;16.304;2022-08-21T06:33:22;2.85;;;0.90;;
69854;SDS011;57146;48.140;16.304;2022-08-21T06:35:49;3.53;;;0.90;;
69854;SDS011;57146;48.140;16.304;2022-08-21T06:38:16;2.40;;;0.80;;
69854;SDS011;57146;48.140;16.304;2022-08-21T06:40:43;2.72;;;1.02;;
69854;SDS011;57146;48.140;16.304;2022-08-21T06:43:14;2.70;;;1.00;;
69854;SDS011;57146;48.140;16.304;2022-08-21T06:45:43;3.90;;;0.90;;
69854;SDS011;57146;48.140;16.304;2022-08-21T06:48:10;2.60;;;0.90;;
69854;SDS011;57146;48.140;16.304;2022-08-21T06:50:44;2.93;;;0.90;;
69854;SDS011;57146;48.140;16.304;2022-08-21T06:53:12;2.75;;;0.90;;
69854;SDS011;57146;48.140;16.304;2022-08-21T06:55:40;2.90;;;0.90;;
69854;SDS011;57146;48.140;16.304;2022-08-21T06:58:08;3.08;;;0.90;;
69854;SDS011;57146;48.140;16.304;2022-08-21T07:00:38;3.08;;;0.90;;
69854;SDS011;57146;48.140;16.304;2022-08-21T07:03:07;2.80;;;1.00;;
69854;SDS011;57146;48.140;16.304;2022-08-21T07:05:34;2.83;;;0.80;;
69854;SDS011;57146;48.140;16.304;2022-08-21T07:08:00;2.58;;;0.65;;
69854;SDS011;57146;48.140;16.304;2022-08-21T07:10:27;2.80;;;0.80;;
69854;SDS011;57146;48.140;16.304;2022-08-21T07:12:54;3.42;;;1.40;;
69854;SDS011;57146;48.140;16.304;2022-08-21T07:15:27;2.93;;;1.13;;
69854;SDS011;57146;48.140;16.304;2022-08-21T07:17:57;3.72;;;1.13;;
69854;SDS011;57146;48.140;16.304;2022-08-21T07:20:25;4.63;;;1.20;;
69854;SDS011;57146;48.140;16.304;2022-08-21T07:22:53;3.15;;;1.23;;
69854;SDS011;57146;48.140;16.304;2022-08-21T07:25:21;3.33;;;1.33;;
69854;SDS011;57146;48.140;16.304;2022-08-21T07:27:48;2.77;;;0.90;;
69854;SDS011;57146;48.140;16.304;2022-08-21T07:30:15;3.00;;;1.10;;
69854;SDS011;57146;48.140;16.304;2022-08-21T07:32:41;3.13;;;1.10;;
69854;SDS011;57146;48.140;16.304;2022-08-21T07:35:08;2.78;;;1.00;;
69854;SDS011;57146;48.140;16.304;2022-08-21T07:37:35;3.10;;;1.30;;
69854;SDS011;57146;48.140;16.304;2022-08-21T07:40:02;3.80;;;1.30;;
69854;SDS011;57146;48.140;16.304;2022-08-21T07:42:30;3.10;;;1.10;;
69854;SDS011;57146;48.140;16.304;2022-08-21T07:44:57;2.92;;;1.13;;
69854;SDS011;57146;48.140;16.304;2022-08-21T07:47:23;3.72;;;0.85;;
69854;SDS011;57146;48.140;16.304;2022-08-21T07:50:07;3.65;;;1.40;;
69854;SDS011;57146;48.140;16.304;2022-08-21T07:52:34;4.73;;;1.47;;
69854;SDS011;57146;48.140;16.304;2022-08-21T07:55:01;2.90;;;1.10;;
69854;SDS011;57146;48.140;16.304;2022-08-21T07:57:32;3.22;;;1.35;;
69854;SDS011;57146;48.140;16.304;2022-08-21T07:59:59;3.30;;;1.30;;
69854;SDS011;57146;48.140;16.304;2022-08-21T08:02:27;2.88;;;1.05;;
69854;SDS011;57146;48.140;16.304;2022-08-21T08:05:02;2.67;;;0.90;;
69854;SDS011;57146;48.140;16.304;2022-08-21T08:07:31;3.17;;;0.93;;
69854;SDS011;57146;48.140;16.304;2022-08-21T08:09:58;3.58;;;1.15;;
69854;SDS011;57146;48.140;16.304;2022-08-21T08:12:25;3.58;;;1.02;;
69854;SDS011;57146;48.140;16.304;2022-08-21T08:14:52;2.88;;;0.95;;
69854;SDS011;57146;48.140;16.304;2022-08-21T08:17:19;2.47;;;0.90;;
69854;SDS011;57146;48.140;16.304;2022-08-21T08:19:46;3.35;;;0.90;;
69854;SDS011;57146;48.140;16.304;2022-08-21T08:22:13;2.70;;;0.80;;
69854;SDS011;57146;48.140;16.304;2022-08-21T08:24:41;2.40;;;0.52;;
69854;SDS011;57146;48.140;16.304;2022-08-21T08:27:08;2.88;;;0.82;;
69854;SDS011;57146;48.140;16.304;2022-08-21T08:29:35;2.80;;;0.70;;
69854;SDS011;57146;48.140;16.304;2022-08-21T08:32:02;4.30;;;0.98;;
69854;SDS011;57146;48.140;16.304;2022-08-21T08:34:30;2.60;;;0.70;;
69854;SDS011;57146;48.140;16.304;2022-08-21T08:36:57;2.70;;;0.90;;
69854;SDS011;57146;48.140;16.304;2022-08-21T08:39:24;2.92;;;1.00;;
69854;SDS011;57146;48.140;16.304;2022-08-21T08:42:14;3.03;;;1.10;;
69854;SDS011;57146;48.140;16.304;2022-08-21T08:45:00;3.20;;;0.80;;
69854;SDS011;57146;48.140;16.304;2022-08-21T08:47:32;3.05;;;0.95;;
69854;SDS011;57146;48.140;16.304;2022-08-21T08:50:06;2.85;;;1.10;;
69854;SDS011;57146;48.140;16.304;2022-08-21T08:52:36;4.03;;;1.10;;
69854;SDS011;57146;48.140;16.304;2022-08-21T08:57:42;2.70;;;0.90;;
69854;SDS011;57146;48.140;16.304;2022-08-21T09:00:16;3.28;;;1.10;;
69854;SDS011;57146;48.140;16.304;2022-08-21T09:02:45;3.10;;;1.20;;
69854;SDS011;57146;48.140;16.304;2022-08-21T09:05:21;3.15;;;1.00;;
69854;SDS011;57146;48.140;16.304;2022-08-21T09:08:01;3.23;;;1.00;;
69854;SDS011;57146;48.140;16.304;2022-08-21T09:10:51;3.17;;;1.00;;
69854;SDS011;57146;48.140;16.304;2022-08-21T09:16:31;3.75;;;0.75;;
69854;SDS011;57146;48.140;16.304;2022-08-21T09:19:28;2.78;;;0.70;;
69854;SDS011;57146;48.140;16.304;2022-08-21T09:25:17;2.60;;;0.90;;
69854;SDS011;57146;48.140;16.304;2022-08-21T09:27:50;3.28;;;0.80;;
69854;SDS011;57146;48.140;16.304;2022-08-21T09:30:17;2.47;;;0.60;;
69854;SDS011;57146;48.140;16.304;2022-08-21T09:32:50;2.90;;;0.90;;
69854;SDS011;57146;48.140;16.304;2022-08-21T09:35:19;2.20;;;0.70;;
69854;SDS011;57146;48.140;16.304;2022-08-21T09:37:50;2.33;;;0.65;;
69854;SDS011;57146;48.140;16.304;2022-08-21T09:43:02;2.40;;;0.63;;
69854;SDS011;57146;48.140;16.304;2022-08-21T09:45:34;1.90;;;0.20;;
69854;SDS011;57146;48.140;16.304;2022-08-21T09:48:15;2.20;;;0.60;;
69854;SDS011;57146;48.140;16.304;2022-08-21T09:50:46;2.20;;;0.47;;
69854;SDS011;57146;48.140;16.304;2022-08-21T09:53:16;2.80;;;0.88;;
69854;SDS011;57146;48.140;16.304;2022-08-21T09:56:03;2.70;;;1.00;;
69854;SDS011;57146;48.140;16.304;2022-08-21T09:58:43;2.50;;;0.68;;
69854;SDS011;57146;48.140;16.304;2022-08-21T10:01:13;2.80;;;0.67;;
69854;SDS011;57146;48.140;16.304;2022-08-21T10:03:42;3.22;;;1.00;;
69854;SDS011;57146;48.140;16.304;2022-08-21T10:06:10;2.67;;;0.70;;
69854;SDS011;57146;48.140;16.304;2022-08-21T10:08:47;3.00;;;0.90;;
69854;SDS011;57146;48.140;16.304;2022-08-21T10:11:15;2.97;;;0.90;;
69854;SDS011;57146;48.140;16.304;2022-08-21T10:19:09;2.75;;;0.82;;
69854;SDS011;57146;48.140;16.304;2022-08-21T10:21:58;2.70;;;0.90;;
69854;SDS011;57146;48.140;16.304;2022-08-21T10:27:24;3.40;;;1.30;;
69854;SDS011;57146;48.140;16.304;2022-08-21T10:30:15;5.10;;;1.20;;
69854;SDS011;57146;48.140;16.304;2022-08-21T10:32:57;3.45;;;0.70;;
69854;SDS011;57146;48.140;16.304;2022-08-21T10:35:40;2.22;;;0.70;;
69854;SDS011;57146;48.140;16.304;2022-08-21T10:38:34;2.60;;;0.70;;
69854;SDS011;57146;48.140;16.304;2022-08-21T10:41:29;2.60;;;0.60;;
69854;SDS011;57146;48.140;16.304;2022-08-21T10:47:18;2.70;;;1.00;;
69854;SDS011;57146;48.140;16.304;2022-08-21T10:58:53;2.60;;;0.70;;
69854;SDS011;57146;48.140;16.304;2022-08-21T11:01:44;2.20;;;0.60;;
69854;SDS011;57146;48.140;16.304;2022-08-21T11:04:25;2.40;;;0.50;;
69854;SDS011;57146;48.140;16.304;2022-08-21T11:07:19;2.60;;;0.80;;
69854;SDS011;57146;48.140;16.304;2022-08-21T11:10:32;1.97;;;0.30;;
69854;SDS011;57146;48.140;16.304;2022-08-21T11:13:34;1.95;;;0.25;;
69854;SDS011;57146;48.140;16.304;2022-08-21T11:16:17;2.03;;;0.40;;
69854;SDS011;57146;48.140;16.304;2022-08-21T11:22:21;1.55;;;0.10;;
69854;SDS011;57146;48.140;16.304;2022-08-21T11:25:00;1.60;;;0.10;;
69854;SDS011;57146;48.140;16.304;2022-08-21T11:30:04;1.05;;;0.03;;
69854;SDS011;57146;48.140;16.304;2022-08-21T11:35:39;1.40;;;0.03;;
69854;SDS011;57146;48.140;16.304;2022-08-21T11:46:47;1.50;;;0.20;;
69854;SDS011;57146;48.140;16.304;2022-08-21T11:49:34;1.15;;;0.10;;
69854;SDS011;57146;48.140;16.304;2022-08-21T11:55:12;2.15;;;0.20;;
69854;SDS011;57146;48.140;16.304;2022-08-21T12:00:28;3.03;;;0.75;;
69854;SDS011;57146;48.140;16.304;2022-08-21T12:03:07;2.22;;;0.10;;
69854;SDS011;57146;48.140;16.304;2022-08-21T12:05:51;1.30;;;0.10;;
69854;SDS011;57146;48.140;16.304;2022-08-21T12:08:31;1.30;;;0.10;;
69854;SDS011;57146;48.140;16.304;2022-08-21T12:11:10;1.50;;;0.10;;
69854;SDS011;57146;48.140;16.304;2022-08-21T12:16:44;1.40;;;0.10;;
69854;SDS011;57146;48.140;16.304;2022-08-21T12:22:09;2.38;;;0.10;;
69854;SDS011;57146;48.140;16.304;2022-08-21T12:24:40;2.25;;;0.15;;
69854;SDS011;57146;48.140;16.304;2022-08-21T12:29:45;1.77;;;0.30;;
69854;SDS011;57146;48.140;16.304;2022-08-21T12:34:51;3.25;;;0.13;;
69854;SDS011;57146;48.140;16.304;2022-08-21T12:37:43;1.60;;;0.10;;
69854;SDS011;57146;48.140;16.304;2022-08-21T12:40:20;2.55;;;0.30;;
69854;SDS011;57146;48.140;16.304;2022-08-21T12:42:51;1.60;;;0.17;;
69854;SDS011;57146;48.140;16.304;2022-08-21T12:45:28;2.90;;;0.30;;
69854;SDS011;57146;48.140;16.304;2022-08-21T12:48:13;1.98;;;0.20;;
69854;SDS011;57146;48.140;16.304;2022-08-21T12:50:44;2.25;;;0.20;;
69854;SDS011;57146;48.140;16.304;2022-08-21T12:56:11;1.95;;;0.30;;
69854;SDS011;57146;48.140;16.304;2022-08-21T12:58:45;2.30;;;0.30;;
69854;SDS011;57146;48.140;16.304;2022-08-21T13:01:21;2.30;;;0.10;;
69854;SDS011;57146;48.140;16.304;2022-08-21T13:03:52;2.05;;;0.35;;
69854;SDS011;57146;48.140;16.304;2022-08-21T13:06:32;1.80;;;0.20;;
69854;SDS011;57146;48.140;16.304;2022-08-21T13:09:04;2.35;;;0.35;;
69854;SDS011;57146;48.140;16.304;2022-08-21T13:11:34;2.17;;;0.57;;
69854;SDS011;57146;48.140;16.304;2022-08-21T13:14:06;1.90;;;0.30;;
69854;SDS011;57146;48.140;16.304;2022-08-21T13:16:45;1.90;;;0.30;;
69854;SDS011;57146;48.140;16.304;2022-08-21T13:19:15;3.20;;;0.40;;
69854;SDS011;57146;48.140;16.304;2022-08-21T13:21:49;2.10;;;0.50;;
69854;SDS011;57146;48.140;16.304;2022-08-21T13:24:24;2.37;;;0.63;;
69854;SDS011;57146;48.140;16.304;2022-08-21T13:27:18;3.38;;;0.50;;
69854;SDS011;57146;48.140;16.304;2022-08-21T13:29:47;2.50;;;0.63;;
69854;SDS011;57146;48.140;16.304;2022-08-21T13:32:22;2.03;;;0.50;;
69854;SDS011;57146;48.140;16.304;2022-08-21T13:34:52;2.40;;;0.63;;
69854;SDS011;57146;48.140;16.304;2022-08-21T13:37:19;2.47;;;0.70;;
69854;SDS011;57146;48.140;16.304;2022-08-21T13:39:51;2.55;;;0.60;;
69854;SDS011;57146;48.140;16.304;2022-08-21T13:42:19;2.30;;;0.50;;
69854;SDS011;57146;48.140;16.304;2022-08-21T13:44:46;3.35;;;0.50;;
69854;SDS011;57146;48.140;16.304;2022-08-21T13:47:15;2.42;;;0.60;;
69854;SDS011;57146;48.140;16.304;2022-08-21T13:49:44;3.13;;;0.57;;
69854;SDS011;57146;48.140;16.304;2022-08-21T13:52:14;3.42;;;0.75;;
69854;SDS011;57146;48.140;16.304;2022-08-21T13:54:43;2.10;;;0.52;;
69854;SDS011;57146;48.140;16.304;2022-08-21T13:57:24;2.72;;;0.98;;
69854;SDS011;57146;48.140;16.304;2022-08-21T13:59:53;2.88;;;0.93;;
69854;SDS011;57146;48.140;16.304;2022-08-21T14:02:47;4.40;;;0.80;;
69854;SDS011;57146;48.140;16.304;2022-08-21T14:05:21;3.35;;;0.70;;
69854;SDS011;57146;48.140;16.304;2022-08-21T14:07:58;2.95;;;0.75;;
69854;SDS011;57146;48.140;16.304;2022-08-21T14:10:56;4.03;;;1.10;;
69854;SDS011;57146;48.140;16.304;2022-08-21T14:15:59;3.47;;;1.00;;
69854;SDS011;57146;48.140;16.304;2022-08-21T14:18:27;3.38;;;1.02;;
69854;SDS011;57146;48.140;16.304;2022-08-21T14:21:05;4.97;;;1.20;;
69854;SDS011;57146;48.140;16.304;2022-08-21T14:23:34;2.53;;;0.80;;
69854;SDS011;57146;48.140;16.304;2022-08-21T14:26:03;3.30;;;0.90;;
69854;SDS011;57146;48.140;16.304;2022-08-21T14:28:33;3.23;;;0.80;;
69854;SDS011;57146;48.140;16.304;2022-08-21T14:31:18;3.88;;;0.90;;
69854;SDS011;57146;48.140;16.304;2022-08-21T14:33:47;2.92;;;1.10;;
69854;SDS011;57146;48.140;16.304;2022-08-21T14:36:14;2.67;;;1.10;;
69854;SDS011;57146;48.140;16.304;2022-08-21T14:38:41;2.85;;;1.10;;
69854;SDS011;57146;48.140;16.304;2022-08-21T14:41:16;3.33;;;1.20;;
69854;SDS011;57146;48.140;16.304;2022-08-21T14:43:45;3.72;;;1.25;;
69854;SDS011;57146;48.140;16.304;2022-08-21T14:46:26;3.30;;;1.00;;
69854;SDS011;57146;48.140;16.304;2022-08-21T14:48:55;3.03;;;0.95;;
69854;SDS011;57146;48.140;16.304;2022-08-21T14:51:22;4.55;;;1.30;;
69854;SDS011;57146;48.140;16.304;2022-08-21T14:53:48;2.93;;;1.10;;
69854;SDS011;57146;48.140;16.304;2022-08-21T14:56:15;3.70;;;0.93;;
69854;SDS011;57146;48.140;16.304;2022-08-21T14:58:46;3.78;;;0.90;;
69854;SDS011;57146;48.140;16.304;2022-08-21T15:01:15;2.63;;;1.00;;
69854;SDS011;57146;48.140;16.304;2022-08-21T15:03:43;3.95;;;1.30;;
69854;SDS011;57146;48.140;16.304;2022-08-21T15:06:11;4.03;;;1.20;;
69854;SDS011;57146;48.140;16.304;2022-08-21T15:08:38;5.03;;;1.20;;
69854;SDS011;57146;48.140;16.304;2022-08-21T15:11:05;4.35;;;0.95;;
69854;SDS011;57146;48.140;16.304;2022-08-21T15:13:39;2.75;;;0.98;;
69854;SDS011;57146;48.140;16.304;2022-08-21T15:16:07;3.22;;;0.80;;
69854;SDS011;57146;48.140;16.304;2022-08-21T15:18:35;3.43;;;1.20;;
69854;SDS011;57146;48.140;16.304;2022-08-21T15:21:02;4.75;;;1.38;;
69854;SDS011;57146;48.140;16.304;2022-08-21T15:23:29;3.90;;;1.10;;
69854;SDS011;57146;48.140;16.304;2022-08-21T15:25:56;3.45;;;1.20;;
69854;SDS011;57146;48.140;16.304;2022-08-21T15:28:25;3.65;;;1.30;;
69854;SDS011;57146;48.140;16.304;2022-08-21T15:30:57;4.83;;;1.30;;
69854;SDS011;57146;48.140;16.304;2022-08-21T15:33:27;4.00;;;1.00;;
69854;SDS011;57146;48.140;16.304;2022-08-21T15:35:54;3.80;;;1.10;;
69854;SDS011;57146;48.140;16.304;2022-08-21T15:38:21;2.97;;;1.10;;
69854;SDS011;57146;48.140;16.304;2022-08-21T15:40:48;3.80;;;1.23;;
69854;SDS011;57146;48.140;16.304;2022-08-21T15:43:27;3.67;;;1.10;;
69854;SDS011;57146;48.140;16.304;2022-08-21T15:45:59;3.30;;;1.20;;
69854;SDS011;57146;48.140;16.304;2022-08-21T15:48:27;3.85;;;1.10;;
69854;SDS011;57146;48.140;16.304;2022-08-21T15:50:55;4.07;;;1.00;;
69854;SDS011;57146;48.140;16.304;2022-08-21T15:53:22;2.85;;;0.90;;
69854;SDS011;57146;48.140;16.304;2022-08-21T15:55:49;4.13;;;1.10;;
69854;SDS011;57146;48.140;16.304;2022-08-21T15:58:16;3.65;;;1.05;;
69854;SDS011;57146;48.140;16.304;2022-08-21T16:00:43;4.85;;;1.27;;
69854;SDS011;57146;48.140;16.304;2022-08-21T16:03:11;3.70;;;0.90;;
69854;SDS011;57146;48.140;16.304;2022-08-21T16:05:41;3.78;;;1.10;;
69854;SDS011;57146;48.140;16.304;2022-08-21T16:08:08;3.13;;;1.10;;
69854;SDS011;57146;48.140;16.304;2022-08-21T16:10:35;2.80;;;1.08;;